Fernando Pessoa — CSKQ — position and weather

sailwx.info

Track history (hours):
 
Tides and Currents Weather Stations Pressure Air Temp Water Temp Dewpoint Dewpoint Depression Visibility Wind Speed Wind Dir Waves Ship Positions

Fernando Pessoa

Last reported at 2015-Jan-26 18:33 UTC. Time now 2015-Jan-26 18:36 UTC.
Position N 38°39' W 009°05'.

Length 49 m.

MMSI: 263701470.

Date/timePositionNaut miles runAvg speedWind from/ knotsBaromVisibWave heightAir tempDewpointWater temp
2015-Jan-26 18:33N 38°39' W 009°05'1 0.9
2015-Jan-26 17:34N 38°39' W 009°06'1 0.8
2015-Jan-26 16:33N 38°39' W 009°05'0 0.0
2015-Jan-26 10:33N 38°39' W 009°05'4 4.0
2015-Jan-26 09:33N 38°42' W 009°08'0 0.0
2015-Jan-26 08:33N 38°42' W 009°08'3 2.8
2015-Jan-26 07:33N 38°40' W 009°07'1 1.5
2015-Jan-26 06:33N 38°39' W 009°05'  
2015-Jan-23 20:05N 38°39' W 009°05'4 7.5
2015-Jan-23 19:33N 38°42' W 009°08'0 0.1
2015-Jan-23 18:33N 38°42' W 009°08'2 2.4
2015-Jan-23 17:34N 38°40' W 009°07'2 1.8
2015-Jan-23 16:33N 38°39' W 009°05'1 0.8
2015-Jan-23 15:33N 38°40' W 009°06'1 1.1
2015-Jan-23 14:33N 38°39' W 009°05'0 0.0
2015-Jan-23 13:33N 38°39' W 009°05'0 0.0
2015-Jan-23 12:33N 38°39' W 009°05'0 0.0
2015-Jan-23 11:33N 38°39' W 009°05'1 1.4
2015-Jan-23 10:33N 38°40' W 009°06'0 0.1
2015-Jan-23 09:33N 38°40' W 009°06'1 0.8
2015-Jan-23 08:33N 38°40' W 009°07'2 2.1
2015-Jan-23 07:33N 38°39' W 009°05'0 0.0
2015-Jan-23 06:32N 38°39' W 009°05'0 0.0
2015-Jan-23 05:33N 38°39' W 009°05'0 0.0
2015-Jan-23 04:33N 38°39' W 009°05'0 0.0
2015-Jan-23 03:33N 38°39' W 009°05'0 0.0
2015-Jan-23 02:33N 38°39' W 009°05'0 0.0
2015-Jan-23 01:33N 38°39' W 009°05'0 0.0
2015-Jan-23 00:33N 38°39' W 009°05'4 4.1
2015-Jan-22 23:33N 38°42' W 009°08'1 1.4
2015-Jan-22 22:33N 38°41' W 009°08'0 0.3
2015-Jan-22 21:33N 38°41' W 009°08'3 2.8
2015-Jan-22 20:33N 38°39' W 009°05'0 0.4
2015-Jan-22 19:33N 38°39' W 009°05'0 0.4
2015-Jan-22 18:33N 38°39' W 009°05'1 0.9
2015-Jan-22 17:33N 38°39' W 009°06'1 0.8
2015-Jan-22 16:33N 38°39' W 009°05'0 0.0
2015-Jan-22 11:19N 38°39' W 009°05'3 3.7
2015-Jan-22 10:34N 38°41' W 009°08'3 2.9
2015-Jan-22 09:33N 38°39' W 009°05'1 0.8
2015-Jan-22 08:33N 38°39' W 009°06'3 3.1
2015-Jan-22 07:33N 38°42' W 009°08'0 0.5
2015-Jan-22 06:33N 38°42' W 009°08'0 0.0
2015-Jan-22 05:33N 38°42' W 009°08'4 4.2
2015-Jan-22 04:33N 38°39' W 009°05'0 0.0
2015-Jan-22 03:33N 38°39' W 009°05'0 0.0
2015-Jan-22 02:33N 38°39' W 009°05'0 0.5
2015-Jan-22 01:34N 38°39' W 009°05'0 0.3
2015-Jan-22 00:33N 38°39' W 009°05'0 0.2
2015-Jan-21 23:33N 38°39' W 009°05'4 5.4
2015-Jan-21 22:50N 38°42' W 009°08'0 4.1
2015-Jan-21 22:46N 38°42' W 009°08'312.8
2015-Jan-21 22:34N 38°40' W 009°06'0 0.3
2015-Jan-21 21:33N 38°40' W 009°06'1 1.1
2015-Jan-21 20:33N 38°39' W 009°05'0 0.0
2015-Jan-21 19:33N 38°39' W 009°05'1 1.4
2015-Jan-21 18:33N 38°40' W 009°06'3 2.8
2015-Jan-21 17:33N 38°42' W 009°08'4 3.9
2015-Jan-21 16:33N 38°39' W 009°05'0 0.0
2015-Jan-21 13:25N 38°39' W 009°05'2 1.9
2015-Jan-21 12:33N 38°40' W 009°07'0 0.3
2015-Jan-21 11:33N 38°40' W 009°06'1 1.3
2015-Jan-21 10:33N 38°39' W 009°05'0 0.0
2015-Jan-21 09:33N 38°39' W 009°05'0 0.1
2015-Jan-21 08:33N 38°39' W 009°05'1 0.8
2015-Jan-21 07:34N 38°39' W 009°06'1 0.7
2015-Jan-21 06:33N 38°39' W 009°05'4 0.3
2015-Jan-20 19:33N 38°42' W 009°08'0 0.4
2015-Jan-20 18:33N 38°42' W 009°08'3 3.3
2015-Jan-20 17:33N 38°39' W 009°06'1 0.7
2015-Jan-20 16:33N 38°39' W 009°05'1 1.1
2015-Jan-20 15:33N 38°40' W 009°06'1 1.4
2015-Jan-20 14:33N 38°39' W 009°05'0 0.0
2015-Jan-20 13:33N 38°39' W 009°05'0 0.0
2015-Jan-20 12:33N 38°39' W 009°05'0 0.0
2015-Jan-20 11:33N 38°39' W 009°05'0 0.0
2015-Jan-20 10:33N 38°39' W 009°05'1 1.4
2015-Jan-20 09:34N 38°40' W 009°06'1 0.9
2015-Jan-20 08:33N 38°40' W 009°07'2 2.3
2015-Jan-20 07:33N 38°39' W 009°05'0 0.0
2015-Jan-20 06:33N 38°39' W 009°05'0 0.0
2015-Jan-20 05:32N 38°39' W 009°05'0 0.0
2015-Jan-20 04:32N 38°39' W 009°05'0 0.0
2015-Jan-20 03:33N 38°39' W 009°05'0 0.0
2015-Jan-20 02:33N 38°39' W 009°05'0 0.0
2015-Jan-20 01:33N 38°39' W 009°05'0 0.0
2015-Jan-20 00:33N 38°39' W 009°05'4 3.7
2015-Jan-19 23:34N 38°42' W 009°08'1 1.2
2015-Jan-19 22:33N 38°41' W 009°08'0 0.1
2015-Jan-19 21:33N 38°41' W 009°08'3 2.8
2015-Jan-19 20:33N 38°39' W 009°05'1 0.6
2015-Jan-19 19:33N 38°39' W 009°06'1 0.6
2015-Jan-19 18:33N 38°39' W 009°05'1 1.0
2015-Jan-19 17:33N 38°39' W 009°06'1 1.0
2015-Jan-19 16:33N 38°39' W 009°05'0 0.0
2015-Jan-19 10:20N 38°39' W 009°05'0 0.1
2015-Jan-19 09:33N 38°39' W 009°05'0 0.3
2015-Jan-19 08:33N 38°39' W 009°05'0 0.4
2015-Jan-19 07:33N 38°39' W 009°05'0 0.1
2015-Jan-19 06:34N 38°39' W 009°05'  
2015-Jan-16 20:31N 38°39' W 009°05'0 0.3
2015-Jan-16 19:33N 38°39' W 009°05'0 0.4
2015-Jan-16 18:33N 38°39' W 009°05'  
Track history (hours):
 
Tides and Currents Weather Stations Pressure Air Temp Water Temp Dewpoint Dewpoint Depression Visibility Wind Speed Wind Dir Waves Ship Positions

Fernando Pessoa

Last reported at 2015-Jan-26 18:33 UTC. Time now 2015-Jan-26 18:36 UTC.
Position N 38°39' W 009°05'.

Length 49 m.

MMSI: 263701470.

Date/timePositionNaut miles runAvg speedWind from/ knotsBaromVisibWave heightAir tempDewpointWater temp
2015-Jan-26 18:33N 38°39' W 009°05'1 0.9
2015-Jan-26 17:34N 38°39' W 009°06'1 0.8
2015-Jan-26 16:33N 38°39' W 009°05'0 0.0
2015-Jan-26 10:33N 38°39' W 009°05'4 4.0
2015-Jan-26 09:33N 38°42' W 009°08'0 0.0
2015-Jan-26 08:33N 38°42' W 009°08'3 2.8
2015-Jan-26 07:33N 38°40' W 009°07'1 1.5
2015-Jan-26 06:33N 38°39' W 009°05'  
2015-Jan-23 20:05N 38°39' W 009°05'4 7.5
2015-Jan-23 19:33N 38°42' W 009°08'0 0.1
2015-Jan-23 18:33N 38°42' W 009°08'2 2.4
2015-Jan-23 17:34N 38°40' W 009°07'2 1.8
2015-Jan-23 16:33N 38°39' W 009°05'1 0.8
2015-Jan-23 15:33N 38°40' W 009°06'1 1.1
2015-Jan-23 14:33N 38°39' W 009°05'0 0.0
2015-Jan-23 13:33N 38°39' W 009°05'0 0.0
2015-Jan-23 12:33N 38°39' W 009°05'0 0.0
2015-Jan-23 11:33N 38°39' W 009°05'1 1.4
2015-Jan-23 10:33N 38°40' W 009°06'0 0.1
2015-Jan-23 09:33N 38°40' W 009°06'1 0.8
2015-Jan-23 08:33N 38°40' W 009°07'2 2.1
2015-Jan-23 07:33N 38°39' W 009°05'0 0.0
2015-Jan-23 06:32N 38°39' W 009°05'0 0.0
2015-Jan-23 05:33N 38°39' W 009°05'0 0.0
2015-Jan-23 04:33N 38°39' W 009°05'0 0.0
2015-Jan-23 03:33N 38°39' W 009°05'0 0.0
2015-Jan-23 02:33N 38°39' W 009°05'0 0.0
2015-Jan-23 01:33N 38°39' W 009°05'0 0.0
2015-Jan-23 00:33N 38°39' W 009°05'4 4.1
2015-Jan-22 23:33N 38°42' W 009°08'1 1.4
2015-Jan-22 22:33N 38°41' W 009°08'0 0.3
2015-Jan-22 21:33N 38°41' W 009°08'3 2.8
2015-Jan-22 20:33N 38°39' W 009°05'0 0.4
2015-Jan-22 19:33N 38°39' W 009°05'0 0.4
2015-Jan-22 18:33N 38°39' W 009°05'1 0.9
2015-Jan-22 17:33N 38°39' W 009°06'1 0.8
2015-Jan-22 16:33N 38°39' W 009°05'0 0.0
2015-Jan-22 11:19N 38°39' W 009°05'3 3.7
2015-Jan-22 10:34N 38°41' W 009°08'3 2.9
2015-Jan-22 09:33N 38°39' W 009°05'1 0.8
2015-Jan-22 08:33N 38°39' W 009°06'3 3.1
2015-Jan-22 07:33N 38°42' W 009°08'0 0.5
2015-Jan-22 06:33N 38°42' W 009°08'0 0.0
2015-Jan-22 05:33N 38°42' W 009°08'4 4.2
2015-Jan-22 04:33N 38°39' W 009°05'0 0.0
2015-Jan-22 03:33N 38°39' W 009°05'0 0.0
2015-Jan-22 02:33N 38°39' W 009°05'0 0.5
2015-Jan-22 01:34N 38°39' W 009°05'0 0.3
2015-Jan-22 00:33N 38°39' W 009°05'0 0.2
2015-Jan-21 23:33N 38°39' W 009°05'4 5.4
2015-Jan-21 22:50N 38°42' W 009°08'0 4.1
2015-Jan-21 22:46N 38°42' W 009°08'312.8
2015-Jan-21 22:34N 38°40' W 009°06'0 0.3
2015-Jan-21 21:33N 38°40' W 009°06'1 1.1
2015-Jan-21 20:33N 38°39' W 009°05'0 0.0
2015-Jan-21 19:33N 38°39' W 009°05'1 1.4
2015-Jan-21 18:33N 38°40' W 009°06'3 2.8
2015-Jan-21 17:33N 38°42' W 009°08'4 3.9
2015-Jan-21 16:33N 38°39' W 009°05'0 0.0
2015-Jan-21 13:25N 38°39' W 009°05'2 1.9
2015-Jan-21 12:33N 38°40' W 009°07'0 0.3
2015-Jan-21 11:33N 38°40' W 009°06'1 1.3
2015-Jan-21 10:33N 38°39' W 009°05'0 0.0
2015-Jan-21 09:33N 38°39' W 009°05'0 0.1
2015-Jan-21 08:33N 38°39' W 009°05'1 0.8
2015-Jan-21 07:34N 38°39' W 009°06'1 0.7
2015-Jan-21 06:33N 38°39' W 009°05'4 0.3
2015-Jan-20 19:33N 38°42' W 009°08'0 0.4
2015-Jan-20 18:33N 38°42' W 009°08'3 3.3
2015-Jan-20 17:33N 38°39' W 009°06'1 0.7
2015-Jan-20 16:33N 38°39' W 009°05'1 1.1
2015-Jan-20 15:33N 38°40' W 009°06'1 1.4
2015-Jan-20 14:33N 38°39' W 009°05'0 0.0
2015-Jan-20 13:33N 38°39' W 009°05'0 0.0
2015-Jan-20 12:33N 38°39' W 009°05'0 0.0
2015-Jan-20 11:33N 38°39' W 009°05'0 0.0
2015-Jan-20 10:33N 38°39' W 009°05'1 1.4
2015-Jan-20 09:34N 38°40' W 009°06'1 0.9
2015-Jan-20 08:33N 38°40' W 009°07'2 2.3
2015-Jan-20 07:33N 38°39' W 009°05'0 0.0
2015-Jan-20 06:33N 38°39' W 009°05'0 0.0
2015-Jan-20 05:32N 38°39' W 009°05'0 0.0
2015-Jan-20 04:32N 38°39' W 009°05'0 0.0
2015-Jan-20 03:33N 38°39' W 009°05'0 0.0
2015-Jan-20 02:33N 38°39' W 009°05'0 0.0
2015-Jan-20 01:33N 38°39' W 009°05'0 0.0
2015-Jan-20 00:33N 38°39' W 009°05'4 3.7
2015-Jan-19 23:34N 38°42' W 009°08'1 1.2
2015-Jan-19 22:33N 38°41' W 009°08'0 0.1
2015-Jan-19 21:33N 38°41' W 009°08'3 2.8
2015-Jan-19 20:33N 38°39' W 009°05'1 0.6
2015-Jan-19 19:33N 38°39' W 009°06'1 0.6
2015-Jan-19 18:33N 38°39' W 009°05'1 1.0
2015-Jan-19 17:33N 38°39' W 009°06'1 1.0
2015-Jan-19 16:33N 38°39' W 009°05'0 0.0
2015-Jan-19 10:20N 38°39' W 009°05'0 0.1
2015-Jan-19 09:33N 38°39' W 009°05'0 0.3
2015-Jan-19 08:33N 38°39' W 009°05'0 0.4
2015-Jan-19 07:33N 38°39' W 009°05'0 0.1
2015-Jan-19 06:34N 38°39' W 009°05'  
2015-Jan-16 20:31N 38°39' W 009°05'0 0.3
2015-Jan-16 19:33N 38°39' W 009°05'0 0.4
2015-Jan-16 18:33N 38°39' W 009°05'  

Dump ship's entire track history